Baltimore, Maryland
Traffic Map
Current Weather Conditions
Baltimore, Maryland
Overcast Haze
Overcast
-3°
Feels Like: -3°
Wind Chill: -3° Ceiling: 2600
Heat Index: -3° Visibility: 5mi
Dew Point: -4° Wind: 0mph
Humidity: 96% Direction: ° ()
Pressure: 29.93in Gusts: 0mph
Raw Report DataKBWI 152154Z 00000KT 5SM BR FEW007 BKN026 OVC044 M03/M04 A2993 RMK AO2 SNE52 SLP137 P0001 T10331039
Traffic Incident Summary
Active as of:
Severity:
Category:
InformationThere was an issue retrieving the traffic information for this location. Please try a different location or try again shortly.
Advertisements